KLEB

Lebanon Municipal Airport

Lebanon, New Hampshire, USA
METAR KLEB 230753Z AUTO 00000KT 10SM FEW001 M07/M09 A3069 RMK AO2 SLP406 I1000 T10721089
Observed Flight Rules
Feb-23 @ 07:53 UTC (33 minutes ago) Visual Flight Rules
Wind Visibility Clouds
Calm 10 miles
  • Few at 100' AGL
Temperatures Readings
Current -7°C / 19°F
Dewpoint -9°C / 16°F
Humidity 86%
Altimeter 30.69" Hg
Pressure 1040.6 hPa
Elevation 171
METAR KLEB 230753Z AUTO 00000KT 10SM FEW001 M07/M09 A3069 RMK AO2 SLP406 I1000 T10721089
Observed Flight Rules
Feb-23 @ 07:53 UTC
(33 minutes ago)
VFR
Wind Visibility
Calm 10 miles
Clouds
  • Few at 100' AGL
Temperature Dewpoint
-7°C / 19°F -9°C / 16°F
Humidity Altimeter Pressure
86% 30.69" Hg 1040.6 hPa